RYR947 LOWW-EPKK
Flight info
| Callsign | RYR947 |
|---|---|
| Flight time | 0h 50m |
| Altitude | 29000 |
| Route | LEDVA3C LEDVA DCT NETIR NETIR4G |
| Aircraft | A320/M-SDE3FGHIRWY/LB1 |
Departure
| Time | 2026-04-22 19:03 |
|---|---|
| Airport | Vienna International Airport (LOWW) |
Arrival
| Time | 2026-04-22 19:54 |
|---|---|
| Airport | Kraków John Paul II International Airport (EPKK) |
| Time | Latitude | Longitude | Altitude | Speed | Heading |
|---|---|---|---|---|---|
| 2026-04-22 18:42 | 48.12086 | 16.55665 | 615 ft | 0 kts | 116° |
| 2026-04-22 18:54 | 48.12092 | 16.55648 | 624 ft | 4 kts | 118° |
| 2026-04-22 18:54 | 48.12106 | 16.55615 | 625 ft | 4 kts | 134° |
| 2026-04-22 18:55 | 48.12126 | 16.55595 | 620 ft | 4 kts | 183° |
| 2026-04-22 18:55 | 48.12134 | 16.55596 | 623 ft | 0 kts | 206° |
| 2026-04-22 18:58 | 48.12124 | 16.55589 | 621 ft | 6 kts | 206° |
| 2026-04-22 18:58 | 48.12061 | 16.55543 | 609 ft | 13 kts | 206° |
| 2026-04-22 18:58 | 48.11969 | 16.55476 | 609 ft | 16 kts | 206° |
| 2026-04-22 18:58 | 48.11855 | 16.55428 | 609 ft | 18 kts | 187° |
| 2026-04-22 18:59 | 48.11791 | 16.55492 | 615 ft | 19 kts | 117° |
| 2026-04-22 18:59 | 48.11729 | 16.55676 | 619 ft | 21 kts | 117° |
| 2026-04-22 18:59 | 48.11661 | 16.55886 | 613 ft | 24 kts | 115° |
| 2026-04-22 18:59 | 48.11587 | 16.56118 | 618 ft | 26 kts | 115° |
| 2026-04-22 19:00 | 48.11504 | 16.56374 | 609 ft | 29 kts | 116° |
| 2026-04-22 19:00 | 48.11412 | 16.56649 | 616 ft | 31 kts | 116° |
| 2026-04-22 19:00 | 48.11327 | 16.56915 | 617 ft | 28 kts | 115° |
| 2026-04-22 19:00 | 48.11239 | 16.57184 | 616 ft | 27 kts | 117° |
| 2026-04-22 19:01 | 48.11171 | 16.57388 | 613 ft | 17 kts | 116° |
| 2026-04-22 19:01 | 48.11115 | 16.57523 | 612 ft | 14 kts | 148° |
| 2026-04-22 19:01 | 48.11036 | 16.57496 | 609 ft | 13 kts | 207° |
| 2026-04-22 19:01 | 48.10957 | 16.57406 | 613 ft | 13 kts | 263° |
| 2026-04-22 19:02 | 48.10970 | 16.57362 | 621 ft | 0 kts | 296° |
| 2026-04-22 19:02 | 48.10972 | 16.57357 | 619 ft | 4 kts | 296° |
| 2026-04-22 19:02 | 48.11072 | 16.57054 | 618 ft | 68 kts | 296° |
| 2026-04-22 19:02 | 48.11367 | 16.56144 | 618 ft | 125 kts | 296° |
| 2026-04-22 19:03 | 48.11815 | 16.54788 | 759 ft | 154 kts | 298° |
| 2026-04-22 19:03 | 48.12206 | 16.53306 | 1407 ft | 157 kts | 279° |
| 2026-04-22 19:03 | 48.11994 | 16.51667 | 2018 ft | 171 kts | 246° |
| 2026-04-22 19:03 | 48.11114 | 16.50365 | 2464 ft | 191 kts | 217° |
| 2026-04-22 19:04 | 48.09916 | 16.49247 | 2752 ft | 213 kts | 215° |
| 2026-04-22 19:04 | 48.08596 | 16.48026 | 3123 ft | 231 kts | 217° |
| 2026-04-22 19:04 | 48.07468 | 16.46373 | 3832 ft | 229 kts | 243° |
| 2026-04-22 19:04 | 48.06730 | 16.44144 | 4248 ft | 250 kts | 251° |
| 2026-04-22 19:05 | 48.05996 | 16.41667 | 4799 ft | 269 kts | 250° |
| 2026-04-22 19:05 | 48.05226 | 16.39078 | 5662 ft | 275 kts | 250° |
| 2026-04-22 19:05 | 48.04440 | 16.36456 | 6583 ft | 279 kts | 250° |
| 2026-04-22 19:05 | 48.03675 | 16.33787 | 7477 ft | 280 kts | 256° |
| 2026-04-22 19:06 | 48.03392 | 16.30938 | 7866 ft | 276 kts | 278° |
| 2026-04-22 19:06 | 48.03864 | 16.28226 | 7994 ft | 268 kts | 301° |
| 2026-04-22 19:06 | 48.04772 | 16.25815 | 8086 ft | 265 kts | 303° |
| 2026-04-22 19:07 | 48.06626 | 16.20991 | 8610 ft | 269 kts | 303° |
| 2026-04-22 19:07 | 48.07541 | 16.18586 | 8882 ft | 270 kts | 303° |
| 2026-04-22 19:07 | 48.08549 | 16.16209 | 9330 ft | 271 kts | 313° |
| 2026-04-22 19:07 | 48.09778 | 16.14065 | 10213 ft | 272 kts | 315° |
| 2026-04-22 19:08 | 48.11101 | 16.11863 | 10620 ft | 292 kts | 315° |
| 2026-04-22 19:08 | 48.12667 | 16.09890 | 10933 ft | 305 kts | 335° |
| 2026-04-22 19:08 | 48.14707 | 16.09047 | 11552 ft | 307 kts | 359° |
| 2026-04-22 19:08 | 48.16825 | 16.09472 | 12275 ft | 310 kts | 14° |
| 2026-04-22 19:09 | 48.18922 | 16.10291 | 13040 ft | 313 kts | 15° |
| 2026-04-22 19:09 | 48.21055 | 16.11148 | 13805 ft | 316 kts | 15° |
| 2026-04-22 19:09 | 48.23192 | 16.11998 | 14501 ft | 319 kts | 15° |
| 2026-04-22 19:09 | 48.25331 | 16.12833 | 15176 ft | 321 kts | 15° |
| 2026-04-22 19:10 | 48.27506 | 16.13671 | 15835 ft | 324 kts | 15° |
| 2026-04-22 19:10 | 48.29698 | 16.14507 | 16492 ft | 327 kts | 15° |
| 2026-04-22 19:10 | 48.31909 | 16.15341 | 17154 ft | 329 kts | 15° |
| 2026-04-22 19:10 | 48.34140 | 16.16176 | 17813 ft | 332 kts | 15° |
| 2026-04-22 19:11 | 48.36393 | 16.17012 | 18463 ft | 335 kts | 15° |
| 2026-04-22 19:11 | 48.38664 | 16.17844 | 19041 ft | 338 kts | 15° |
| 2026-04-22 19:11 | 48.40961 | 16.18671 | 19632 ft | 340 kts | 16° |
| 2026-04-22 19:11 | 48.43156 | 16.19976 | 20206 ft | 340 kts | 33° |
| 2026-04-22 19:12 | 48.44933 | 16.22315 | 20791 ft | 342 kts | 51° |
| 2026-04-22 19:12 | 48.46376 | 16.25177 | 21384 ft | 345 kts | 52° |
| 2026-04-22 19:12 | 48.47817 | 16.28083 | 21972 ft | 347 kts | 53° |
| 2026-04-22 19:12 | 48.49263 | 16.31007 | 22540 ft | 349 kts | 53° |
| 2026-04-22 19:13 | 48.50721 | 16.33948 | 23138 ft | 352 kts | 53° |
| 2026-04-22 19:13 | 48.52188 | 16.36909 | 23716 ft | 354 kts | 53° |
| 2026-04-22 19:13 | 48.53667 | 16.39897 | 24206 ft | 356 kts | 53° |
| 2026-04-22 19:13 | 48.55154 | 16.42902 | 24688 ft | 358 kts | 54° |
| 2026-04-22 19:14 | 48.56645 | 16.45910 | 25158 ft | 359 kts | 54° |
| 2026-04-22 19:14 | 48.58143 | 16.48927 | 25655 ft | 360 kts | 54° |
| 2026-04-22 19:14 | 48.59646 | 16.51959 | 26132 ft | 361 kts | 55° |
| 2026-04-22 19:14 | 48.61148 | 16.54999 | 26610 ft | 362 kts | 55° |
| 2026-04-22 19:15 | 48.62145 | 16.57021 | 26918 ft | 362 kts | 56° |
| 2026-04-22 19:15 | 48.64160 | 16.61113 | 27525 ft | 364 kts | 56° |
| 2026-04-22 19:15 | 48.65668 | 16.64188 | 27967 ft | 365 kts | 56° |
| 2026-04-22 19:15 | 48.67182 | 16.67284 | 28405 ft | 366 kts | 56° |
| 2026-04-22 19:16 | 48.68700 | 16.70386 | 28853 ft | 368 kts | 57° |
| 2026-04-22 19:16 | 48.70224 | 16.73504 | 29168 ft | 369 kts | 57° |
| 2026-04-22 19:16 | 48.71730 | 16.76580 | 29213 ft | 356 kts | 57° |
| 2026-04-22 19:17 | 48.74645 | 16.82422 | 29203 ft | 344 kts | 56° |
| 2026-04-22 19:17 | 48.77624 | 16.88109 | 29206 ft | 344 kts | 55° |
| 2026-04-22 19:18 | 48.80609 | 16.93782 | 29207 ft | 344 kts | 55° |
| 2026-04-22 19:18 | 48.83573 | 16.99477 | 29209 ft | 344 kts | 55° |
| 2026-04-22 19:19 | 48.86523 | 17.05195 | 29208 ft | 344 kts | 55° |
| 2026-04-22 19:19 | 48.89472 | 17.10922 | 29208 ft | 344 kts | 55° |
| 2026-04-22 19:20 | 48.92405 | 17.16624 | 29179 ft | 345 kts | 55° |
| 2026-04-22 19:20 | 48.95365 | 17.22376 | 29180 ft | 346 kts | 55° |
| 2026-04-22 19:21 | 48.98319 | 17.28153 | 29188 ft | 346 kts | 55° |
| 2026-04-22 19:21 | 49.01276 | 17.33949 | 29187 ft | 347 kts | 55° |
| 2026-04-22 19:22 | 49.04233 | 17.39750 | 29196 ft | 347 kts | 55° |
| 2026-04-22 19:22 | 49.07200 | 17.45556 | 29198 ft | 347 kts | 55° |
| 2026-04-22 19:23 | 49.10165 | 17.51376 | 29187 ft | 348 kts | 55° |
| 2026-04-22 19:23 | 49.13125 | 17.57219 | 29191 ft | 348 kts | 55° |
| 2026-04-22 19:24 | 49.14094 | 17.59131 | 29194 ft | 349 kts | 55° |
| 2026-04-22 19:24 | 49.17046 | 17.64975 | 29201 ft | 349 kts | 55° |
| 2026-04-22 19:25 | 49.20004 | 17.70853 | 29205 ft | 349 kts | 55° |
| 2026-04-22 19:25 | 49.22965 | 17.76738 | 29215 ft | 349 kts | 55° |
| 2026-04-22 19:26 | 49.25924 | 17.82619 | 29221 ft | 349 kts | 55° |
| 2026-04-22 19:26 | 49.28875 | 17.88516 | 29194 ft | 349 kts | 55° |
| 2026-04-22 19:27 | 49.31830 | 17.94433 | 29193 ft | 350 kts | 55° |
| 2026-04-22 19:27 | 49.34789 | 18.00367 | 29197 ft | 350 kts | 55° |
| 2026-04-22 19:28 | 49.37749 | 18.06307 | 29201 ft | 351 kts | 55° |
| 2026-04-22 19:28 | 49.40727 | 18.12302 | 28809 ft | 356 kts | 55° |
| 2026-04-22 19:28 | 49.42224 | 18.15325 | 28172 ft | 355 kts | 54° |
| 2026-04-22 19:29 | 49.43717 | 18.18338 | 27613 ft | 353 kts | 54° |
| 2026-04-22 19:29 | 49.45199 | 18.21333 | 27090 ft | 351 kts | 54° |
| 2026-04-22 19:29 | 49.46670 | 18.24313 | 26580 ft | 349 kts | 54° |
| 2026-04-22 19:29 | 49.48131 | 18.27278 | 26091 ft | 347 kts | 54° |
| 2026-04-22 19:30 | 49.49095 | 18.29236 | 25780 ft | 346 kts | 54° |
| 2026-04-22 19:30 | 49.51029 | 18.33169 | 25213 ft | 343 kts | 54° |
| 2026-04-22 19:30 | 49.52471 | 18.36104 | 24644 ft | 346 kts | 53° |
| 2026-04-22 19:30 | 49.53928 | 18.39065 | 24134 ft | 347 kts | 53° |
| 2026-04-22 19:31 | 49.55383 | 18.42022 | 23670 ft | 346 kts | 53° |
| 2026-04-22 19:31 | 49.56832 | 18.44975 | 23174 ft | 345 kts | 53° |
| 2026-04-22 19:31 | 49.58271 | 18.47915 | 22700 ft | 343 kts | 53° |
| 2026-04-22 19:31 | 49.59681 | 18.50803 | 22226 ft | 341 kts | 53° |
| 2026-04-22 19:32 | 49.61119 | 18.53749 | 21725 ft | 339 kts | 53° |
| 2026-04-22 19:32 | 49.62536 | 18.56650 | 21226 ft | 337 kts | 53° |
| 2026-04-22 19:32 | 49.63921 | 18.59492 | 20738 ft | 335 kts | 53° |
| 2026-04-22 19:32 | 49.65323 | 18.62371 | 20246 ft | 334 kts | 52° |
| 2026-04-22 19:33 | 49.66712 | 18.65230 | 19765 ft | 332 kts | 52° |
| 2026-04-22 19:33 | 49.68122 | 18.68039 | 19264 ft | 330 kts | 47° |
| 2026-04-22 19:33 | 49.69858 | 18.70315 | 18786 ft | 328 kts | 33° |
| 2026-04-22 19:33 | 49.71926 | 18.71792 | 18281 ft | 329 kts | 19° |
| 2026-04-22 19:34 | 49.74145 | 18.72633 | 17734 ft | 328 kts | 15° |
| 2026-04-22 19:34 | 49.76360 | 18.73443 | 17201 ft | 326 kts | 15° |
| 2026-04-22 19:34 | 49.78559 | 18.74257 | 16696 ft | 324 kts | 15° |
| 2026-04-22 19:34 | 49.80741 | 18.75069 | 16200 ft | 322 kts | 15° |
| 2026-04-22 19:35 | 49.82910 | 18.75879 | 15716 ft | 319 kts | 15° |
| 2026-04-22 19:35 | 49.85063 | 18.76686 | 15277 ft | 317 kts | 15° |
| 2026-04-22 19:35 | 49.86475 | 18.77215 | 15182 ft | 317 kts | 15° |
| 2026-04-22 19:35 | 49.89233 | 18.78772 | 15187 ft | 317 kts | 34° |
| 2026-04-22 19:36 | 49.90740 | 18.81236 | 15182 ft | 315 kts | 58° |
| 2026-04-22 19:36 | 49.91423 | 18.84379 | 15183 ft | 305 kts | 81° |
| 2026-04-22 19:36 | 49.91353 | 18.87625 | 15189 ft | 299 kts | 90° |
| 2026-04-22 19:36 | 49.91168 | 18.90831 | 15187 ft | 298 kts | 90° |
| 2026-04-22 19:37 | 49.90980 | 18.94026 | 15184 ft | 298 kts | 90° |
| 2026-04-22 19:37 | 49.90791 | 18.97225 | 15181 ft | 298 kts | 90° |
| 2026-04-22 19:37 | 49.90608 | 19.00425 | 15180 ft | 298 kts | 90° |
| 2026-04-22 19:37 | 49.90426 | 19.03629 | 15182 ft | 298 kts | 90° |
| 2026-04-22 19:38 | 49.90246 | 19.06831 | 15177 ft | 298 kts | 90° |
| 2026-04-22 19:38 | 49.90065 | 19.10032 | 15180 ft | 298 kts | 90° |
| 2026-04-22 19:38 | 49.89881 | 19.13233 | 15184 ft | 298 kts | 90° |
| 2026-04-22 19:38 | 49.89692 | 19.16433 | 15184 ft | 298 kts | 90° |
| 2026-04-22 19:39 | 49.89504 | 19.19616 | 14941 ft | 295 kts | 90° |
| 2026-04-22 19:39 | 49.89320 | 19.22726 | 14390 ft | 293 kts | 90° |
| 2026-04-22 19:39 | 49.89174 | 19.25853 | 13752 ft | 290 kts | 84° |
| 2026-04-22 19:39 | 49.89407 | 19.28926 | 13092 ft | 283 kts | 72° |
| 2026-04-22 19:40 | 49.90058 | 19.31771 | 12452 ft | 278 kts | 62° |
| 2026-04-22 19:40 | 49.90841 | 19.34513 | 11899 ft | 280 kts | 63° |
| 2026-04-22 19:40 | 49.91616 | 19.37270 | 11550 ft | 278 kts | 63° |
| 2026-04-22 19:40 | 49.92384 | 19.40024 | 11197 ft | 277 kts | 63° |
| 2026-04-22 19:41 | 49.93149 | 19.42765 | 10853 ft | 277 kts | 63° |
| 2026-04-22 19:41 | 49.93915 | 19.45510 | 10506 ft | 277 kts | 63° |
| 2026-04-22 19:41 | 49.94665 | 19.48257 | 10151 ft | 278 kts | 66° |
| 2026-04-22 19:41 | 49.95148 | 19.51174 | 9781 ft | 280 kts | 74° |
| 2026-04-22 19:42 | 49.95541 | 19.54135 | 9413 ft | 279 kts | 74° |
| 2026-04-22 19:42 | 49.95934 | 19.57072 | 9047 ft | 277 kts | 74° |
| 2026-04-22 19:42 | 49.96330 | 19.59994 | 8716 ft | 276 kts | 74° |
| 2026-04-22 19:42 | 49.96724 | 19.62899 | 8380 ft | 274 kts | 73° |
| 2026-04-22 19:43 | 49.97506 | 19.68669 | 7707 ft | 271 kts | 73° |
| 2026-04-22 19:43 | 49.97892 | 19.71531 | 7388 ft | 270 kts | 73° |
| 2026-04-22 19:43 | 49.98275 | 19.74374 | 7082 ft | 268 kts | 73° |
| 2026-04-22 19:44 | 49.98649 | 19.77156 | 7001 ft | 257 kts | 73° |
| 2026-04-22 19:44 | 49.99003 | 19.79797 | 7005 ft | 243 kts | 73° |
| 2026-04-22 19:44 | 49.99343 | 19.82325 | 7009 ft | 237 kts | 72° |
| 2026-04-22 19:44 | 49.99684 | 19.84824 | 7010 ft | 237 kts | 72° |
| 2026-04-22 19:45 | 50.00028 | 19.87329 | 7008 ft | 237 kts | 72° |
| 2026-04-22 19:45 | 50.00371 | 19.89830 | 7010 ft | 237 kts | 72° |
| 2026-04-22 19:45 | 50.00597 | 19.91488 | 7010 ft | 237 kts | 72° |
| 2026-04-22 19:45 | 50.01050 | 19.94839 | 7009 ft | 236 kts | 72° |
| 2026-04-22 19:46 | 50.01273 | 19.96494 | 6999 ft | 236 kts | 72° |
| 2026-04-22 19:46 | 50.01607 | 19.98979 | 6738 ft | 235 kts | 72° |
| 2026-04-22 19:46 | 50.01943 | 20.01466 | 6404 ft | 235 kts | 73° |
| 2026-04-22 19:46 | 50.02282 | 20.03957 | 6078 ft | 235 kts | 73° |
| 2026-04-22 19:47 | 50.02619 | 20.06445 | 5763 ft | 235 kts | 73° |
| 2026-04-22 19:47 | 50.03122 | 20.08811 | 5447 ft | 226 kts | 52° |
| 2026-04-22 19:47 | 50.04213 | 20.10451 | 5170 ft | 214 kts | 25° |
| 2026-04-22 19:47 | 50.05602 | 20.11078 | 4929 ft | 207 kts | 0° |
| 2026-04-22 19:48 | 50.07010 | 20.10778 | 4663 ft | 203 kts | 348° |
| 2026-04-22 19:48 | 50.08384 | 20.10323 | 4449 ft | 199 kts | 348° |
| 2026-04-22 19:48 | 50.09690 | 20.09801 | 4374 ft | 187 kts | 336° |
| 2026-04-22 19:48 | 50.10706 | 20.08673 | 4356 ft | 176 kts | 314° |
| 2026-04-22 19:49 | 50.11323 | 20.07025 | 4265 ft | 179 kts | 292° |
| 2026-04-22 19:49 | 50.11431 | 20.05086 | 4055 ft | 183 kts | 266° |
| 2026-04-22 19:49 | 50.11172 | 20.03157 | 3830 ft | 180 kts | 263° |
| 2026-04-22 19:49 | 50.10913 | 20.01273 | 3600 ft | 176 kts | 263° |
| 2026-04-22 19:50 | 50.10660 | 19.99426 | 3363 ft | 173 kts | 263° |
| 2026-04-22 19:50 | 50.10411 | 19.97608 | 3131 ft | 170 kts | 262° |
| 2026-04-22 19:50 | 50.10165 | 19.95819 | 2903 ft | 167 kts | 262° |
| 2026-04-22 19:50 | 50.09925 | 19.94069 | 2679 ft | 163 kts | 262° |
| 2026-04-22 19:51 | 50.09691 | 19.92374 | 2461 ft | 158 kts | 262° |
| 2026-04-22 19:51 | 50.09464 | 19.90718 | 2245 ft | 156 kts | 261° |
| 2026-04-22 19:51 | 50.09246 | 19.89130 | 2066 ft | 142 kts | 260° |
| 2026-04-22 19:51 | 50.09048 | 19.87671 | 1860 ft | 135 kts | 260° |
| 2026-04-22 19:52 | 50.08852 | 19.86257 | 1630 ft | 133 kts | 259° |
| 2026-04-22 19:52 | 50.08663 | 19.84855 | 1466 ft | 132 kts | 258° |
| 2026-04-22 19:52 | 50.08465 | 19.83465 | 1295 ft | 132 kts | 257° |
| 2026-04-22 19:52 | 50.08270 | 19.82075 | 1108 ft | 131 kts | 258° |
| 2026-04-22 19:53 | 50.08080 | 19.80695 | 924 ft | 130 kts | 258° |
| 2026-04-22 19:53 | 50.07890 | 19.79329 | 798 ft | 122 kts | 258° |
| 2026-04-22 19:53 | 50.07744 | 19.78271 | 795 ft | 77 kts | 257° |
| 2026-04-22 19:53 | 50.07648 | 19.77589 | 795 ft | 50 kts | 257° |
| 2026-04-22 19:54 | 50.07581 | 19.77122 | 801 ft | 41 kts | 258° |
| 2026-04-22 19:54 | 50.07528 | 19.76844 | 802 ft | 16 kts | 214° |
| 2026-04-22 19:54 | 50.07408 | 19.76871 | 800 ft | 20 kts | 166° |
| 2026-04-22 19:54 | 50.07309 | 19.76970 | 800 ft | 17 kts | 77° |
| 2026-04-22 19:55 | 50.07337 | 19.77167 | 800 ft | 20 kts | 77° |
| 2026-04-22 19:55 | 50.07369 | 19.77397 | 800 ft | 23 kts | 78° |
| 2026-04-22 19:55 | 50.07405 | 19.77659 | 800 ft | 26 kts | 77° |
| 2026-04-22 19:55 | 50.07446 | 19.77948 | 800 ft | 28 kts | 77° |
| 2026-04-22 19:56 | 50.07486 | 19.78230 | 800 ft | 27 kts | 78° |
| 2026-04-22 19:56 | 50.07528 | 19.78531 | 800 ft | 29 kts | 78° |
| 2026-04-22 19:56 | 50.07568 | 19.78821 | 800 ft | 26 kts | 77° |
| 2026-04-22 19:56 | 50.07609 | 19.79112 | 800 ft | 29 kts | 78° |
| 2026-04-22 19:57 | 50.07650 | 19.79424 | 800 ft | 28 kts | 77° |
| 2026-04-22 19:57 | 50.07686 | 19.79683 | 800 ft | 25 kts | 77° |
| 2026-04-22 19:57 | 50.07719 | 19.79904 | 800 ft | 12 kts | 79° |
| 2026-04-22 19:57 | 50.07657 | 19.79962 | 800 ft | 14 kts | 194° |
| 2026-04-22 19:58 | 50.07555 | 19.79918 | 800 ft | 15 kts | 175° |
| 2026-04-22 19:58 | 50.07514 | 19.80005 | 800 ft | 10 kts | 78° |
| 2026-04-22 19:58 | 50.07539 | 19.80107 | 800 ft | 9 kts | 30° |
| 2026-04-22 19:58 | 50.07578 | 19.80099 | 800 ft | 0 kts | 347° |